Time;durP1;ratioP1;P1;durP2;ratioP2;P2;SDS_P1;SDS_P2;PMS_P1;PMS_P2;Temp;Humidity;BMP_temperature;BMP_pressure;BME280_temperature;BME280_humidity;BME280_pressure;Samples;Min_cycle;Max_cycle;Signal;HPM_P1;HPM_P2
2023/06/29 00:00:20;;;;;;;28.95;21.13;;;;;;;;;;5056802;28;20045;-75
2023/06/29 00:02:47;;;;;;;28.48;20.23;;;;;;;;;;5058882;28;20121;-75
2023/06/29 00:05:13;;;;;;;30.95;22.02;;;;;;;;;;5059887;28;20120;-76
2023/06/29 00:07:39;;;;;;;29.30;21.45;;;;;;;;;;5050110;28;20037;-74
2023/06/29 00:10:06;;;;;;;28.17;20.60;;;;;;;;;;5054787;28;20115;-75
2023/06/29 00:12:32;;;;;;;26.60;20.13;;;;;;;;;;5058023;28;20041;-76
2023/06/29 00:14:58;;;;;;;27.45;20.15;;;;;;;;;;5057475;28;20098;-75
2023/06/29 00:17:24;;;;;;;25.48;19.52;;;;;;;;;;5058829;28;20049;-75
2023/06/29 00:19:50;;;;;;;27.25;21.92;;;;;;;;;;5057058;28;20548;-77
2023/06/29 00:22:16;;;;;;;28.80;20.75;;;;;;;;;;5056667;28;20135;-74
2023/06/29 00:24:42;;;;;;;31.35;21.75;;;;;;;;;;5058701;28;20045;-74
2023/06/29 00:27:09;;;;;;;26.83;21.42;;;;;;;;;;5058087;28;20052;-74
2023/06/29 00:29:36;;;;;;;28.83;21.40;;;;;;;;;;5057987;28;20049;-76
2023/06/29 00:32:02;;;;;;;27.95;21.63;;;;;;;;;;5058333;28;20513;-75
2023/06/29 00:34:28;;;;;;;31.85;22.92;;;;;;;;;;5056780;28;20124;-75
2023/06/29 00:36:54;;;;;;;29.20;21.90;;;;;;;;;;5055120;28;20124;-75
2023/06/29 00:39:20;;;;;;;29.00;21.73;;;;;;;;;;5056128;28;20088;-75
2023/06/29 00:41:53;;;;;;;30.00;22.45;;;;;;;;;;5043919;28;20075;-75
2023/06/29 00:44:19;;;;;;;28.85;22.08;;;;;;;;;;5056841;28;20044;-74
2023/06/29 00:46:45;;;;;;;31.00;22.00;;;;;;;;;;5044823;28;20037;-74
2023/06/29 00:49:12;;;;;;;29.23;22.90;;;;;;;;;;5056094;28;20118;-76
2023/06/29 00:51:38;;;;;;;28.17;22.38;;;;;;;;;;5041815;28;20104;-75
2023/06/29 00:54:04;;;;;;;29.45;23.33;;;;;;;;;;5053796;28;20041;-75
2023/06/29 00:56:35;;;;;;;32.80;23.17;;;;;;;;;;5056567;28;20097;-75
2023/06/29 00:59:01;;;;;;;30.75;22.23;;;;;;;;;;5053289;28;20518;-75
2023/06/29 01:01:28;;;;;;;32.22;21.55;;;;;;;;;;5055619;28;20045;-75
2023/06/29 01:03:56;;;;;;;30.77;22.65;;;;;;;;;;5056279;28;20041;-75
2023/06/29 01:06:24;;;;;;;28.85;22.10;;;;;;;;;;5055800;28;20048;-75
2023/06/29 01:08:52;;;;;;;27.80;21.63;;;;;;;;;;5054825;28;20124;-75
2023/06/29 01:11:19;;;;;;;31.95;22.70;;;;;;;;;;5053595;28;20047;-75
2023/06/29 01:13:46;;;;;;;27.63;21.42;;;;;;;;;;5052304;28;20041;-75
2023/06/29 01:16:13;;;;;;;27.58;21.70;;;;;;;;;;5057912;28;20071;-75
2023/06/29 01:18:39;;;;;;;29.65;22.58;;;;;;;;;;5056976;28;20091;-75
2023/06/29 01:21:05;;;;;;;25.42;21.88;;;;;;;;;;5057839;28;20415;-74
2023/06/29 01:23:36;;;;;;;34.00;22.40;;;;;;;;;;5057061;28;20110;-74
2023/06/29 01:26:03;;;;;;;28.23;21.23;;;;;;;;;;5055967;28;20041;-74
2023/06/29 01:28:32;;;;;;;28.25;22.05;;;;;;;;;;5055849;28;20487;-75
2023/06/29 01:31:02;;;;;;;28.25;22.08;;;;;;;;;;5056759;28;20514;-76
2023/06/29 01:33:29;;;;;;;28.85;21.92;;;;;;;;;;5056667;28;20090;-75
2023/06/29 01:36:02;;;;;;;31.08;22.75;;;;;;;;;;5055016;28;20033;-76
2023/06/29 01:38:33;;;;;;;26.15;20.77;;;;;;;;;;5057783;28;20056;-76
2023/06/29 01:41:00;;;;;;;26.23;21.80;;;;;;;;;;5048953;28;20040;-75
2023/06/29 01:43:28;;;;;;;27.90;22.27;;;;;;;;;;5046858;28;20045;-75
2023/06/29 01:45:54;;;;;;;28.40;21.38;;;;;;;;;;5042848;28;20045;-75
2023/06/29 01:48:21;;;;;;;28.23;21.33;;;;;;;;;;5055086;28;20045;-75
2023/06/29 01:50:48;;;;;;;29.27;21.77;;;;;;;;;;5052085;28;20037;-75
2023/06/29 01:53:14;;;;;;;25.58;20.50;;;;;;;;;;5055977;28;20095;-76
2023/06/29 01:55:40;;;;;;;28.55;21.88;;;;;;;;;;5055057;28;20057;-75
2023/06/29 01:58:06;;;;;;;29.77;21.65;;;;;;;;;;5058112;28;20056;-76
2023/06/29 02:00:32;;;;;;;27.20;21.58;;;;;;;;;;5054423;28;20033;-75
2023/06/29 02:02:58;;;;;;;28.48;21.98;;;;;;;;;;5051081;28;20045;-75
2023/06/29 02:05:24;;;;;;;29.27;21.15;;;;;;;;;;5052991;28;20041;-77
2023/06/29 02:07:50;;;;;;;28.25;21.98;;;;;;;;;;5054255;28;20048;-75
2023/06/29 02:10:16;;;;;;;27.65;22.05;;;;;;;;;;5054447;28;20041;-75
2023/06/29 02:12:42;;;;;;;29.80;21.75;;;;;;;;;;5050462;28;20072;-75
2023/06/29 02:15:09;;;;;;;28.80;21.35;;;;;;;;;;5053755;28;20041;-75
2023/06/29 02:17:35;;;;;;;30.75;21.85;;;;;;;;;;5049444;28;20072;-75
2023/06/29 02:20:01;;;;;;;24.92;20.98;;;;;;;;;;5043816;28;20048;-75
2023/06/29 02:22:27;;;;;;;29.58;21.77;;;;;;;;;;5044292;28;20068;-75
2023/06/29 02:24:53;;;;;;;25.13;20.65;;;;;;;;;;5038395;28;20041;-75
2023/06/29 02:27:19;;;;;;;27.90;20.70;;;;;;;;;;5049055;28;20052;-75
2023/06/29 02:29:45;;;;;;;26.33;20.77;;;;;;;;;;5053821;28;20045;-76
2023/06/29 02:32:11;;;;;;;27.55;21.25;;;;;;;;;;5054203;28;20041;-75
2023/06/29 02:34:37;;;;;;;29.25;21.00;;;;;;;;;;5055872;28;20049;-75
2023/06/29 02:37:03;;;;;;;25.10;20.38;;;;;;;;;;5054961;28;20041;-75
2023/06/29 02:39:29;;;;;;;25.98;20.63;;;;;;;;;;5056269;28;20045;-74
2023/06/29 02:41:55;;;;;;;27.73;20.92;;;;;;;;;;5054746;28;20041;-74
2023/06/29 02:44:21;;;;;;;27.52;21.30;;;;;;;;;;5056781;28;20063;-74
2023/06/29 02:46:47;;;;;;;26.63;21.05;;;;;;;;;;5055899;28;20103;-74
2023/06/29 02:49:15;;;;;;;27.85;20.80;;;;;;;;;;5056701;28;20059;-76
2023/06/29 02:51:41;;;;;;;27.05;21.17;;;;;;;;;;5055996;28;20474;-75
2023/06/29 02:54:07;;;;;;;26.65;20.27;;;;;;;;;;5051854;28;20087;-75
2023/06/29 02:56:33;;;;;;;26.20;19.40;;;;;;;;;;5056082;28;20041;-75
2023/06/29 02:59:00;;;;;;;28.48;20.58;;;;;;;;;;5055767;28;20053;-74
2023/06/29 03:01:26;;;;;;;30.00;20.38;;;;;;;;;;5055932;28;20411;-74
2023/06/29 03:03:52;;;;;;;27.20;20.63;;;;;;;;;;5050814;28;20043;-75
2023/06/29 03:06:18;;;;;;;28.60;20.13;;;;;;;;;;5043437;28;20040;-75
2023/06/29 03:08:44;;;;;;;27.85;20.75;;;;;;;;;;5056536;28;20067;-75
2023/06/29 03:11:10;;;;;;;25.35;19.80;;;;;;;;;;5036918;28;20956;-74
2023/06/29 03:13:36;;;;;;;27.27;19.80;;;;;;;;;;5050985;28;20052;-74
2023/06/29 03:16:02;;;;;;;28.98;20.55;;;;;;;;;;5055837;28;20041;-75
2023/06/29 03:18:28;;;;;;;27.35;20.17;;;;;;;;;;5055283;28;20081;-74
2023/06/29 03:20:54;;;;;;;30.52;19.88;;;;;;;;;;5054252;28;20044;-75
2023/06/29 03:23:20;;;;;;;25.90;19.75;;;;;;;;;;5055606;28;20118;-76
2023/06/29 03:25:46;;;;;;;25.75;19.48;;;;;;;;;;5054957;28;20121;-75
2023/06/29 03:28:12;;;;;;;29.25;21.23;;;;;;;;;;5055399;28;20064;-76
2023/06/29 03:30:38;;;;;;;27.90;20.75;;;;;;;;;;5054682;28;20483;-75
2023/06/29 03:33:04;;;;;;;27.65;20.23;;;;;;;;;;5048741;28;20045;-74
2023/06/29 03:35:31;;;;;;;26.88;20.65;;;;;;;;;;5053982;28;20056;-74
2023/06/29 03:37:57;;;;;;;25.70;19.55;;;;;;;;;;5056679;28;20045;-75
2023/06/29 03:40:23;;;;;;;24.52;20.20;;;;;;;;;;5043581;28;20108;-75
2023/06/29 03:42:49;;;;;;;31.52;21.80;;;;;;;;;;5049581;28;20052;-75
2023/06/29 03:45:15;;;;;;;27.48;20.92;;;;;;;;;;5049455;28;20053;-75
2023/06/29 03:47:42;;;;;;;27.15;21.30;;;;;;;;;;5057368;28;20041;-75
2023/06/29 03:50:08;;;;;;;27.08;21.95;;;;;;;;;;5055626;28;20063;-74
2023/06/29 03:52:34;;;;;;;27.77;20.73;;;;;;;;;;5054521;28;20395;-75
2023/06/29 03:55:00;;;;;;;26.05;20.35;;;;;;;;;;5056059;28;20619;-75
2023/06/29 03:57:26;;;;;;;28.17;20.77;;;;;;;;;;5047685;28;20064;-75
2023/06/29 03:59:52;;;;;;;28.58;21.05;;;;;;;;;;5029003;28;20160;-75
2023/06/29 04:02:18;;;;;;;29.98;21.67;;;;;;;;;;5049015;28;20044;-74
2023/06/29 04:04:45;;;;;;;25.23;20.83;;;;;;;;;;5054736;28;20424;-75
2023/06/29 04:07:11;;;;;;;28.45;22.02;;;;;;;;;;5051990;28;20079;-73
2023/06/29 04:09:37;;;;;;;27.98;20.70;;;;;;;;;;5056884;28;20074;-74
2023/06/29 04:12:03;;;;;;;28.30;21.52;;;;;;;;;;5056737;28;20075;-74
2023/06/29 04:14:29;;;;;;;31.35;21.88;;;;;;;;;;5056964;28;20056;-78
2023/06/29 04:16:55;;;;;;;29.20;22.38;;;;;;;;;;5053706;28;20059;-74
2023/06/29 04:19:21;;;;;;;25.88;21.45;;;;;;;;;;5052492;28;20501;-75
2023/06/29 04:21:48;;;;;;;27.77;21.70;;;;;;;;;;5038017;28;20049;-74
2023/06/29 04:24:14;;;;;;;27.73;21.45;;;;;;;;;;5048731;28;20611;-74
2023/06/29 04:26:41;;;;;;;27.10;20.85;;;;;;;;;;5052848;28;20093;-75
2023/06/29 04:29:07;;;;;;;29.40;21.17;;;;;;;;;;5058740;28;20064;-74
2023/06/29 04:31:33;;;;;;;26.92;21.35;;;;;;;;;;5058239;28;20140;-74
2023/06/29 04:33:59;;;;;;;28.88;22.23;;;;;;;;;;5058660;28;20517;-75
2023/06/29 04:36:29;;;;;;;32.08;22.00;;;;;;;;;;5057911;28;20068;-75
2023/06/29 04:38:55;;;;;;;25.92;19.15;;;;;;;;;;5059224;28;20092;-75
2023/06/29 04:41:30;;;;;;;30.08;21.40;;;;;;;;;;5058773;28;20122;-76
2023/06/29 04:43:57;;;;;;;25.88;21.40;;;;;;;;;;5058784;28;20053;-75
2023/06/29 04:46:23;;;;;;;29.17;21.35;;;;;;;;;;5058162;28;20156;-76
2023/06/29 04:48:49;;;;;;;29.98;22.92;;;;;;;;;;5058087;28;20083;-75
2023/06/29 04:51:18;;;;;;;28.67;21.85;;;;;;;;;;5058870;28;20052;-76
2023/06/29 04:53:44;;;;;;;29.15;22.58;;;;;;;;;;5057932;28;20052;-74
2023/06/29 04:56:10;;;;;;;28.38;22.63;;;;;;;;;;5046669;28;20057;-75
2023/06/29 04:58:36;;;;;;;30.85;23.98;;;;;;;;;;5052376;28;20483;-75
2023/06/29 05:01:03;;;;;;;29.98;23.40;;;;;;;;;;5053836;28;20041;-74
2023/06/29 05:03:29;;;;;;;29.48;23.10;;;;;;;;;;5056057;28;20132;-74
2023/06/29 05:05:55;;;;;;;29.35;24.17;;;;;;;;;;5057130;28;20045;-74
2023/06/29 05:08:21;;;;;;;32.13;24.33;;;;;;;;;;5056293;28;20124;-74
2023/06/29 05:10:47;;;;;;;30.67;24.25;;;;;;;;;;5058397;28;20037;-73
2023/06/29 05:13:13;;;;;;;32.05;24.42;;;;;;;;;;5049233;28;20100;-75
2023/06/29 05:15:39;;;;;;;29.52;24.40;;;;;;;;;;5055663;28;20083;-75
2023/06/29 05:18:05;;;;;;;30.88;26.08;;;;;;;;;;5056913;28;20479;-75
2023/06/29 05:20:31;;;;;;;29.50;26.13;;;;;;;;;;5053643;28;20047;-75
2023/06/29 05:22:59;;;;;;;32.33;25.13;;;;;;;;;;5040080;28;20463;-75
2023/06/29 05:25:25;;;;;;;31.73;25.08;;;;;;;;;;5056450;28;20059;-75
2023/06/29 05:27:51;;;;;;;33.22;25.08;;;;;;;;;;5057952;28;20037;-76
2023/06/29 05:30:17;;;;;;;31.50;25.23;;;;;;;;;;5054834;28;20116;-76
2023/06/29 05:32:43;;;;;;;29.33;25.75;;;;;;;;;;5047372;28;20041;-75
2023/06/29 05:35:09;;;;;;;31.50;26.08;;;;;;;;;;5054311;28;20063;-75
2023/06/29 05:37:35;;;;;;;30.55;25.83;;;;;;;;;;5056309;28;20041;-75
2023/06/29 05:40:01;;;;;;;29.27;25.13;;;;;;;;;;5058326;28;20037;-75
2023/06/29 05:42:27;;;;;;;31.55;26.13;;;;;;;;;;5057145;28;20120;-75
2023/06/29 05:44:55;;;;;;;34.03;24.83;;;;;;;;;;5056436;28;20064;-75
2023/06/29 05:47:21;;;;;;;33.72;25.67;;;;;;;;;;5052263;28;20106;-75
2023/06/29 05:49:47;;;;;;;32.92;26.40;;;;;;;;;;5053723;28;20048;-75
2023/06/29 05:52:13;;;;;;;36.75;26.60;;;;;;;;;;5055063;28;20041;-74
2023/06/29 05:54:39;;;;;;;33.22;26.50;;;;;;;;;;5056187;28;20041;-75
2023/06/29 05:57:05;;;;;;;31.00;25.58;;;;;;;;;;5057157;28;20045;-75
2023/06/29 05:59:31;;;;;;;31.52;25.27;;;;;;;;;;5056430;28;20057;-76
2023/06/29 06:01:57;;;;;;;30.85;25.85;;;;;;;;;;5045163;28;20120;-75
2023/06/29 06:04:23;;;;;;;31.33;25.45;;;;;;;;;;5046326;28;20037;-75
2023/06/29 06:06:49;;;;;;;32.38;23.42;;;;;;;;;;5043910;28;20033;-75
2023/06/29 06:09:15;;;;;;;31.80;25.23;;;;;;;;;;5054975;28;20049;-76
2023/06/29 06:11:41;;;;;;;31.02;23.88;;;;;;;;;;5054237;28;20051;-75
2023/06/29 06:14:07;;;;;;;32.25;24.50;;;;;;;;;;5049376;28;20048;-75
2023/06/29 06:16:33;;;;;;;32.05;25.63;;;;;;;;;;5048111;28;20047;-75
2023/06/29 06:18:59;;;;;;;29.50;23.60;;;;;;;;;;5046065;28;20195;-74
2023/06/29 06:21:25;;;;;;;30.98;24.15;;;;;;;;;;5046399;28;20079;-75
2023/06/29 06:23:52;;;;;;;29.38;23.67;;;;;;;;;;5051742;28;20053;-74
2023/06/29 06:26:18;;;;;;;28.52;22.50;;;;;;;;;;5055598;28;20351;-75
2023/06/29 06:28:44;;;;;;;33.92;25.25;;;;;;;;;;5053807;28;20045;-75
2023/06/29 06:31:10;;;;;;;30.05;25.35;;;;;;;;;;5061180;28;20052;-74
2023/06/29 06:33:36;;;;;;;31.88;23.05;;;;;;;;;;5047188;28;20044;-75
2023/06/29 06:36:02;;;;;;;30.92;24.95;;;;;;;;;;5056720;28;20060;-74
2023/06/29 06:38:28;;;;;;;30.38;24.65;;;;;;;;;;5060467;28;20076;-74
2023/06/29 06:40:54;;;;;;;36.72;26.13;;;;;;;;;;5059589;28;20133;-74
2023/06/29 06:43:20;;;;;;;31.20;24.10;;;;;;;;;;5050846;28;20104;-74
2023/06/29 06:45:46;;;;;;;28.48;22.13;;;;;;;;;;5055433;28;20411;-74
2023/06/29 06:48:12;;;;;;;27.88;21.25;;;;;;;;;;5060995;28;20128;-75
2023/06/29 06:50:38;;;;;;;36.65;24.10;;;;;;;;;;5055534;28;20056;-74
2023/06/29 06:53:04;;;;;;;29.80;23.70;;;;;;;;;;5055730;28;20056;-75
2023/06/29 06:55:31;;;;;;;29.83;25.10;;;;;;;;;;5058318;28;20264;-75
2023/06/29 06:57:57;;;;;;;30.30;23.25;;;;;;;;;;5056055;28;20083;-75
2023/06/29 07:00:23;;;;;;;30.15;23.55;;;;;;;;;;5058315;28;20059;-75
2023/06/29 07:02:50;;;;;;;30.35;24.08;;;;;;;;;;5055776;28;20086;-75
2023/06/29 07:05:16;;;;;;;38.92;26.33;;;;;;;;;;5052889;28;20067;-76
2023/06/29 07:07:42;;;;;;;34.55;26.42;;;;;;;;;;5038365;28;20069;-75
2023/06/29 07:10:09;;;;;;;30.60;25.52;;;;;;;;;;5056949;28;20063;-77
2023/06/29 07:12:35;;;;;;;30.80;25.73;;;;;;;;;;5057234;28;20391;-76
2023/06/29 07:15:01;;;;;;;33.88;28.02;;;;;;;;;;5056196;28;20055;-75
2023/06/29 07:17:27;;;;;;;37.58;27.88;;;;;;;;;;5057469;28;20044;-75
2023/06/29 07:19:53;;;;;;;35.97;28.60;;;;;;;;;;5061902;28;20131;-75
2023/06/29 07:22:20;;;;;;;36.28;26.95;;;;;;;;;;5056384;28;20048;-75
2023/06/29 07:24:46;;;;;;;37.33;28.60;;;;;;;;;;5056163;28;20048;-74
2023/06/29 07:27:12;;;;;;;37.83;28.23;;;;;;;;;;5053440;28;20052;-75
2023/06/29 07:29:38;;;;;;;39.95;28.73;;;;;;;;;;5056668;28;20491;-74
2023/06/29 07:32:04;;;;;;;36.22;26.73;;;;;;;;;;5057891;28;20052;-74
2023/06/29 07:34:31;;;;;;;33.22;26.40;;;;;;;;;;5056218;28;20041;-75
2023/06/29 07:36:57;;;;;;;38.38;29.80;;;;;;;;;;5056024;28;20123;-76
2023/06/29 07:39:23;;;;;;;31.83;26.42;;;;;;;;;;5055604;28;20079;-75
2023/06/29 07:41:49;;;;;;;37.67;29.58;;;;;;;;;;5053822;28;20049;-75
2023/06/29 07:44:15;;;;;;;37.05;29.58;;;;;;;;;;5055250;28;20513;-75
2023/06/29 07:46:41;;;;;;;36.47;29.42;;;;;;;;;;5056306;28;20049;-74
2023/06/29 07:49:07;;;;;;;37.47;29.05;;;;;;;;;;5061648;28;20049;-75
2023/06/29 07:51:34;;;;;;;37.10;30.98;;;;;;;;;;5062109;28;20060;-75
2023/06/29 07:54:02;;;;;;;38.90;29.38;;;;;;;;;;5050376;28;20116;-74
2023/06/29 07:56:28;;;;;;;32.72;28.73;;;;;;;;;;5060982;28;20041;-75
2023/06/29 07:58:55;;;;;;;38.08;30.38;;;;;;;;;;5053448;28;20076;-75
2023/06/29 08:01:21;;;;;;;35.20;29.95;;;;;;;;;;5072196;28;20053;-76
2023/06/29 08:03:47;;;;;;;35.53;28.88;;;;;;;;;;5073574;28;20041;-74
2023/06/29 08:06:13;;;;;;;36.00;29.83;;;;;;;;;;5056668;28;20052;-74
2023/06/29 08:08:39;;;;;;;38.67;29.17;;;;;;;;;;5060601;28;20360;-75
2023/06/29 08:11:05;;;;;;;33.95;29.35;;;;;;;;;;5060134;28;20063;-75
2023/06/29 08:13:31;;;;;;;32.35;25.92;;;;;;;;;;5041582;28;20045;-75
2023/06/29 08:15:57;;;;;;;33.40;26.90;;;;;;;;;;5047413;28;20049;-75
2023/06/29 08:18:24;;;;;;;38.17;28.05;;;;;;;;;;5057156;28;20123;-74
2023/06/29 08:20:50;;;;;;;30.05;26.15;;;;;;;;;;5059172;28;20109;-75
2023/06/29 08:23:16;;;;;;;35.17;26.23;;;;;;;;;;5061135;28;20479;-75
2023/06/29 08:25:42;;;;;;;33.88;26.38;;;;;;;;;;5055476;28;20033;-74
2023/06/29 08:28:09;;;;;;;31.95;25.58;;;;;;;;;;5052295;28;20410;-75
2023/06/29 08:30:35;;;;;;;33.20;25.65;;;;;;;;;;5057042;28;20084;-76
2023/06/29 08:33:02;;;;;;;31.02;24.30;;;;;;;;;;5059053;28;20056;-74
2023/06/29 08:35:28;;;;;;;30.98;23.10;;;;;;;;;;5060520;28;20476;-74
2023/06/29 08:37:54;;;;;;;31.83;23.33;;;;;;;;;;5058763;28;20057;-75
2023/06/29 08:40:22;;;;;;;34.45;24.95;;;;;;;;;;5060518;28;20041;-76
2023/06/29 08:42:48;;;;;;;32.47;25.27;;;;;;;;;;5057508;28;20056;-76
2023/06/29 08:45:14;;;;;;;30.13;24.58;;;;;;;;;;5061845;28;20045;-75
2023/06/29 08:47:41;;;;;;;33.83;24.88;;;;;;;;;;5059618;28;20045;-75
2023/06/29 08:50:09;;;;;;;30.63;24.98;;;;;;;;;;5056681;28;20084;-74
2023/06/29 08:52:36;;;;;;;31.30;25.35;;;;;;;;;;5062848;28;20045;-75
2023/06/29 08:55:03;;;;;;;32.92;25.35;;;;;;;;;;5067651;28;20433;-75
2023/06/29 08:57:31;;;;;;;35.45;25.55;;;;;;;;;;5061707;28;20052;-75
2023/06/29 08:59:58;;;;;;;32.35;26.00;;;;;;;;;;5059835;28;20113;-74
2023/06/29 09:02:24;;;;;;;33.67;26.40;;;;;;;;;;5061573;28;20053;-78
2023/06/29 09:04:51;;;;;;;29.73;24.55;;;;;;;;;;5060058;28;20048;-74
2023/06/29 09:07:17;;;;;;;31.35;25.77;;;;;;;;;;5058913;28;20049;-75
2023/06/29 09:09:43;;;;;;;36.25;26.25;;;;;;;;;;5065714;28;20223;-75
2023/06/29 09:12:10;;;;;;;33.13;25.05;;;;;;;;;;5069612;28;20052;-75
2023/06/29 09:14:43;;;;;;;31.63;26.45;;;;;;;;;;5064332;28;20044;-74
2023/06/29 09:17:20;;;;;;;32.90;26.10;;;;;;;;;;5063929;28;20067;-75
2023/06/29 09:19:56;;;;;;;33.42;25.10;;;;;;;;;;5058635;28;20503;-74
2023/06/29 09:22:24;;;;;;;29.33;25.00;;;;;;;;;;5060251;28;20057;-75
2023/06/29 09:24:56;;;;;;;29.92;23.98;;;;;;;;;;5067848;28;20128;-74
2023/06/29 09:27:22;;;;;;;32.08;25.70;;;;;;;;;;5069066;28;20051;-74
2023/06/29 09:29:51;;;;;;;29.90;23.90;;;;;;;;;;5072669;28;20037;-74
2023/06/29 09:32:17;;;;;;;31.13;23.92;;;;;;;;;;5064363;28;20424;-75
2023/06/29 09:34:47;;;;;;;30.83;23.52;;;;;;;;;;5062473;28;20049;-74
2023/06/29 09:37:17;;;;;;;28.63;23.33;;;;;;;;;;5068360;28;20048;-74
2023/06/29 09:40:11;;;;;;;28.60;23.48;;;;;;;;;;5065535;28;20041;-75
2023/06/29 09:42:38;;;;;;;30.83;24.77;;;;;;;;;;5060214;28;20744;-74
2023/06/29 09:45:04;;;;;;;28.42;21.95;;;;;;;;;;5062762;28;20041;-74
2023/06/29 09:47:31;;;;;;;28.10;21.83;;;;;;;;;;5062564;28;20041;-74
2023/06/29 09:49:57;;;;;;;28.65;21.92;;;;;;;;;;5069352;28;20041;-73
2023/06/29 09:52:23;;;;;;;28.92;22.38;;;;;;;;;;5066548;28;20095;-73
2023/06/29 09:54:52;;;;;;;29.40;22.15;;;;;;;;;;5057772;28;20418;-72
2023/06/29 09:57:18;;;;;;;28.05;22.17;;;;;;;;;;5063114;28;20041;-74
2023/06/29 09:59:44;;;;;;;31.45;23.50;;;;;;;;;;5069614;28;20103;-73
2023/06/29 10:02:11;;;;;;;29.55;22.67;;;;;;;;;;5069742;28;20502;-73
2023/06/29 10:04:37;;;;;;;29.73;23.42;;;;;;;;;;5061675;28;20067;-74
2023/06/29 10:07:07;;;;;;;28.65;22.00;;;;;;;;;;5066487;28;20040;-84
2023/06/29 10:09:38;;;;;;;25.45;22.20;;;;;;;;;;5066288;28;20051;-70
2023/06/29 10:12:04;;;;;;;28.70;22.70;;;;;;;;;;5056208;28;20037;-70
2023/06/29 10:14:31;;;;;;;28.95;22.52;;;;;;;;;;5056107;28;20049;-70
2023/06/29 10:16:57;;;;;;;27.20;23.00;;;;;;;;;;5057913;28;20083;-71
2023/06/29 10:19:24;;;;;;;30.48;23.65;;;;;;;;;;5064579;28;20045;-70
2023/06/29 10:21:56;;;;;;;30.52;24.27;;;;;;;;;;5060852;28;20499;-69
2023/06/29 10:24:25;;;;;;;31.20;24.58;;;;;;;;;;5057822;28;20052;-71
2023/06/29 10:26:51;;;;;;;34.55;24.77;;;;;;;;;;5055439;28;20059;-70
2023/06/29 10:29:17;;;;;;;29.38;23.95;;;;;;;;;;5056034;28;20051;-70
2023/06/29 10:31:49;;;;;;;27.25;23.08;;;;;;;;;;5056206;28;20049;-69
2023/06/29 10:34:16;;;;;;;32.95;24.00;;;;;;;;;;5060939;28;20368;-69
2023/06/29 10:36:51;;;;;;;32.78;22.63;;;;;;;;;;5060070;28;20044;-71
2023/06/29 10:39:37;;;;;;;29.92;23.50;;;;;;;;;;5059737;28;20159;-69
2023/06/29 10:42:08;;;;;;;30.08;24.02;;;;;;;;;;5062138;28;20108;-70
2023/06/29 10:44:34;;;;;;;30.85;24.33;;;;;;;;;;5062062;28;20045;-69
2023/06/29 10:47:01;;;;;;;32.35;25.70;;;;;;;;;;5065235;28;20105;-70
2023/06/29 10:49:28;;;;;;;30.77;25.58;;;;;;;;;;5062800;28;20044;-69
2023/06/29 10:52:04;;;;;;;32.65;24.90;;;;;;;;;;5058617;28;20071;-69
2023/06/29 10:54:30;;;;;;;32.83;26.48;;;;;;;;;;5059810;28;20051;-70
2023/06/29 10:57:06;;;;;;;32.42;26.60;;;;;;;;;;5059207;28;20060;-70
2023/06/29 10:59:34;;;;;;;27.75;23.45;;;;;;;;;;5065086;28;20057;-70
2023/06/29 11:02:01;;;;;;;28.92;22.75;;;;;;;;;;5055691;28;20499;-70
2023/06/29 11:04:28;;;;;;;30.30;24.50;;;;;;;;;;5057489;28;20509;-70
2023/06/29 11:06:54;;;;;;;29.52;24.02;;;;;;;;;;5060703;28;20041;-70
2023/06/29 11:09:20;;;;;;;29.55;25.20;;;;;;;;;;5062914;28;20041;-71
2023/06/29 11:11:47;;;;;;;29.92;24.77;;;;;;;;;;5058481;28;20037;-70
2023/06/29 11:14:18;;;;;;;30.13;23.85;;;;;;;;;;5057752;28;20049;-70
2023/06/29 11:16:44;;;;;;;29.13;23.10;;;;;;;;;;5058276;28;20095;-70
2023/06/29 11:19:11;;;;;;;28.80;23.60;;;;;;;;;;5053563;28;20048;-70
2023/06/29 11:21:37;;;;;;;28.13;24.25;;;;;;;;;;5062822;28;20047;-70
2023/06/29 11:24:04;;;;;;;29.83;24.45;;;;;;;;;;5055915;28;20094;-69
2023/06/29 11:26:30;;;;;;;31.45;26.17;;;;;;;;;;5058190;28;20430;-68
2023/06/29 11:28:56;;;;;;;28.42;24.63;;;;;;;;;;5059788;28;20049;-68
2023/06/29 11:31:23;;;;;;;28.90;24.23;;;;;;;;;;5056148;28;20503;-66
2023/06/29 11:33:50;;;;;;;32.17;24.58;;;;;;;;;;5056558;28;21422;-67
2023/06/29 11:36:26;;;;;;;31.75;25.02;;;;;;;;;;5056340;28;20123;-76
2023/06/29 11:39:09;;;;;;;31.08;25.58;;;;;;;;;;5059413;28;20099;-65
2023/06/29 11:41:39;;;;;;;32.33;26.40;;;;;;;;;;5057877;28;20051;-71
2023/06/29 11:44:05;;;;;;;33.33;26.10;;;;;;;;;;5053599;28;20045;-67
2023/06/29 11:46:34;;;;;;;34.28;26.15;;;;;;;;;;5051710;28;20091;-66
2023/06/29 11:49:04;;;;;;;34.60;27.25;;;;;;;;;;5050832;28;20049;-67
2023/06/29 11:51:31;;;;;;;31.27;26.42;;;;;;;;;;5047408;28;20107;-66
2023/06/29 11:53:57;;;;;;;30.77;26.30;;;;;;;;;;5049664;28;20095;-67
2023/06/29 11:56:28;;;;;;;32.90;28.40;;;;;;;;;;5051254;28;20056;-77
2023/06/29 11:58:55;;;;;;;34.30;28.77;;;;;;;;;;5050993;28;20049;-69
2023/06/29 12:01:21;;;;;;;36.10;28.75;;;;;;;;;;5051243;28;20093;-70
2023/06/29 12:03:48;;;;;;;37.17;28.52;;;;;;;;;;5050597;28;20124;-70
2023/06/29 12:06:14;;;;;;;39.13;27.88;;;;;;;;;;5049767;28;20049;-69
2023/06/29 12:08:41;;;;;;;33.33;27.88;;;;;;;;;;5052176;28;20094;-69
2023/06/29 12:11:14;;;;;;;35.80;28.98;;;;;;;;;;5046649;28;20037;-70
2023/06/29 12:13:48;;;;;;;37.53;29.58;;;;;;;;;;5052137;28;20045;-70
2023/06/29 12:16:16;;;;;;;33.38;29.02;;;;;;;;;;5049882;28;20140;-69
2023/06/29 12:18:42;;;;;;;34.33;30.15;;;;;;;;;;5045969;28;20049;-69
2023/06/29 12:21:08;;;;;;;35.70;28.00;;;;;;;;;;5050432;28;20041;-69
2023/06/29 12:23:34;;;;;;;37.25;30.48;;;;;;;;;;5051134;28;20053;-69
2023/06/29 12:26:00;;;;;;;32.78;28.00;;;;;;;;;;5042461;28;20051;-69
2023/06/29 12:28:27;;;;;;;35.65;29.58;;;;;;;;;;5050586;28;20041;-69
2023/06/29 12:30:53;;;;;;;33.30;26.95;;;;;;;;;;5055109;28;20049;-69
2023/06/29 12:33:19;;;;;;;33.17;26.65;;;;;;;;;;5038141;28;20067;-69
2023/06/29 12:35:45;;;;;;;37.53;28.42;;;;;;;;;;5057477;28;20048;-69
2023/06/29 12:38:11;;;;;;;29.77;25.38;;;;;;;;;;5052574;28;20103;-69
2023/06/29 12:40:37;;;;;;;30.45;25.83;;;;;;;;;;5048865;28;20055;-70
2023/06/29 12:43:04;;;;;;;31.95;25.25;;;;;;;;;;5037564;28;20045;-69
2023/06/29 12:45:30;;;;;;;27.65;24.00;;;;;;;;;;5053587;28;20106;-69
2023/06/29 12:47:56;;;;;;;27.67;23.73;;;;;;;;;;5054741;28;20056;-69
2023/06/29 12:50:22;;;;;;;26.90;22.58;;;;;;;;;;5048456;28;20045;-70
2023/06/29 12:52:49;;;;;;;26.50;23.40;;;;;;;;;;5053919;28;20138;-69
2023/06/29 12:55:15;;;;;;;24.90;20.48;;;;;;;;;;5052365;28;20049;-69
2023/06/29 12:57:43;;;;;;;23.13;20.10;;;;;;;;;;5043502;28;20136;-70
2023/06/29 13:00:10;;;;;;;21.27;18.23;;;;;;;;;;5042688;28;20400;-71
2023/06/29 13:02:36;;;;;;;24.33;20.30;;;;;;;;;;5053634;28;20048;-69
2023/06/29 13:05:02;;;;;;;29.55;20.48;;;;;;;;;;5054838;28;20045;-68
2023/06/29 13:07:28;;;;;;;22.65;20.00;;;;;;;;;;5055446;28;20212;-69
2023/06/29 13:09:56;;;;;;;25.17;21.35;;;;;;;;;;5053778;28;20048;-68
2023/06/29 13:12:23;;;;;;;27.80;22.15;;;;;;;;;;5055357;28;20053;-70
2023/06/29 13:14:50;;;;;;;26.58;22.15;;;;;;;;;;5052922;28;20125;-69
2023/06/29 13:17:16;;;;;;;26.08;22.63;;;;;;;;;;5053193;28;20037;-69
2023/06/29 13:19:43;;;;;;;25.00;21.77;;;;;;;;;;5049286;28;20084;-69
2023/06/29 13:22:09;;;;;;;25.73;21.70;;;;;;;;;;5050623;28;20124;-69
2023/06/29 13:24:35;;;;;;;23.15;20.65;;;;;;;;;;5051404;28;20037;-70
2023/06/29 13:27:03;;;;;;;24.63;20.88;;;;;;;;;;5053711;28;20153;-69
2023/06/29 13:29:30;;;;;;;27.15;21.65;;;;;;;;;;5054778;28;20059;-70
2023/06/29 13:31:56;;;;;;;25.63;20.50;;;;;;;;;;5035804;28;20128;-70
2023/06/29 13:34:22;;;;;;;26.63;21.45;;;;;;;;;;5052875;28;20045;-72
2023/06/29 13:36:48;;;;;;;25.25;21.40;;;;;;;;;;5052028;28;20457;-70
2023/06/29 13:39:15;;;;;;;25.73;20.33;;;;;;;;;;5055400;28;20045;-69
2023/06/29 13:41:41;;;;;;;26.05;20.52;;;;;;;;;;5059901;28;20103;-70
2023/06/29 13:44:08;;;;;;;25.58;21.52;;;;;;;;;;5062971;28;20045;-70
2023/06/29 13:46:41;;;;;;;24.25;20.58;;;;;;;;;;5055350;28;20098;-70
2023/06/29 13:49:08;;;;;;;24.73;20.38;;;;;;;;;;5057028;28;20623;-70
2023/06/29 13:51:34;;;;;;;26.17;21.25;;;;;;;;;;5065639;28;20059;-70
2023/06/29 13:54:02;;;;;;;26.55;21.27;;;;;;;;;;5056922;28;20045;-70
2023/06/29 13:56:34;;;;;;;25.02;20.85;;;;;;;;;;5057897;28;20071;-69
2023/06/29 13:59:03;;;;;;;23.90;21.10;;;;;;;;;;5056100;28;20060;-70
2023/06/29 14:01:30;;;;;;;25.80;22.02;;;;;;;;;;5062362;28;20067;-71
2023/06/29 14:03:59;;;;;;;27.50;23.88;;;;;;;;;;5059698;28;20060;-70
2023/06/29 14:06:25;;;;;;;27.80;23.25;;;;;;;;;;5058027;28;20049;-71
2023/06/29 14:08:52;;;;;;;28.33;24.13;;;;;;;;;;5063124;28;20446;-71
2023/06/29 14:11:18;;;;;;;27.70;24.08;;;;;;;;;;5059648;28;20127;-70
2023/06/29 14:13:47;;;;;;;28.48;22.92;;;;;;;;;;5056147;28;20032;-70